sensor_id;sensor_type;location;lat;lon;timestamp;pressure;altitude;pressure_sealevel;temperature;humidity
70053;BME280;57398;52.032;4.376;2023-12-20T00:02:37;99783.69;;;6.75;100.00
70053;BME280;57398;52.032;4.376;2023-12-20T00:05:25;99794.81;;;6.57;100.00
70053;BME280;57398;52.032;4.376;2023-12-20T00:08:15;99787.00;;;6.64;100.00
70053;BME280;57398;52.032;4.376;2023-12-20T00:11:04;99792.53;;;6.67;100.00
70053;BME280;57398;52.032;4.376;2023-12-20T00:13:52;99809.50;;;6.75;100.00
70053;BME280;57398;52.032;4.376;2023-12-20T00:16:40;99821.53;;;6.81;100.00
70053;BME280;57398;52.032;4.376;2023-12-20T00:19:29;99833.16;;;6.72;100.00
70053;BME280;57398;52.032;4.376;2023-12-20T00:22:17;99837.38;;;6.85;100.00
70053;BME280;57398;52.032;4.376;2023-12-20T00:25:07;99877.47;;;6.69;100.00
70053;BME280;57398;52.032;4.376;2023-12-20T00:27:55;99886.78;;;6.70;100.00
70053;BME280;57398;52.032;4.376;2023-12-20T00:30:44;99898.03;;;6.76;100.00
70053;BME280;57398;52.032;4.376;2023-12-20T00:33:32;99896.84;;;6.78;100.00
70053;BME280;57398;52.032;4.376;2023-12-20T00:36:20;99925.00;;;6.61;100.00
70053;BME280;57398;52.032;4.376;2023-12-20T00:39:08;99909.44;;;6.86;100.00
70053;BME280;57398;52.032;4.376;2023-12-20T00:41:58;99947.16;;;6.87;100.00
70053;BME280;57398;52.032;4.376;2023-12-20T00:44:46;99982.56;;;6.80;100.00
70053;BME280;57398;52.032;4.376;2023-12-20T00:47:34;100004.81;;;6.81;100.00
70053;BME280;57398;52.032;4.376;2023-12-20T00:50:22;100026.88;;;6.77;100.00
70053;BME280;57398;52.032;4.376;2023-12-20T00:53:15;100037.59;;;6.81;100.00
70053;BME280;57398;52.032;4.376;2023-12-20T00:56:04;100045.97;;;6.76;100.00
70053;BME280;57398;52.032;4.376;2023-12-20T00:58:53;100039.91;;;6.64;100.00
70053;BME280;57398;52.032;4.376;2023-12-20T01:01:41;100055.13;;;6.72;100.00
70053;BME280;57398;52.032;4.376;2023-12-20T01:04:30;100025.59;;;6.86;100.00
70053;BME280;57398;52.032;4.376;2023-12-20T01:07:18;100042.69;;;6.87;100.00
70053;BME280;57398;52.032;4.376;2023-12-20T01:10:07;100042.75;;;6.81;100.00
70053;BME280;57398;52.032;4.376;2023-12-20T01:12:55;100052.25;;;6.80;100.00
70053;BME280;57398;52.032;4.376;2023-12-20T01:15:44;100031.28;;;6.95;100.00
70053;BME280;57398;52.032;4.376;2023-12-20T01:18:34;99995.56;;;6.92;100.00
70053;BME280;57398;52.032;4.376;2023-12-20T01:21:23;99560.94;;;6.98;100.00
70053;BME280;57398;52.032;4.376;2023-12-20T01:24:11;99507.53;;;6.99;100.00
70053;BME280;57398;52.032;4.376;2023-12-20T01:26:59;99503.47;;;7.03;100.00
70053;BME280;57398;52.032;4.376;2023-12-20T01:29:47;99525.03;;;6.97;100.00
70053;BME280;57398;52.032;4.376;2023-12-20T01:32:37;99509.66;;;7.02;100.00
70053;BME280;57398;52.032;4.376;2023-12-20T01:35:25;99511.78;;;7.05;100.00
70053;BME280;57398;52.032;4.376;2023-12-20T01:38:13;99507.75;;;6.97;100.00
70053;BME280;57398;52.032;4.376;2023-12-20T01:41:01;99493.47;;;7.06;100.00
70053;BME280;57398;52.032;4.376;2023-12-20T01:43:49;99503.03;;;7.06;100.00
70053;BME280;57398;52.032;4.376;2023-12-20T01:46:38;99498.88;;;6.93;100.00
70053;BME280;57398;52.032;4.376;2023-12-20T01:49:27;99502.72;;;6.90;100.00
70053;BME280;57398;52.032;4.376;2023-12-20T01:52:16;99496.19;;;7.00;100.00
70053;BME280;57398;52.032;4.376;2023-12-20T01:55:06;99476.00;;;6.97;100.00
70053;BME280;57398;52.032;4.376;2023-12-20T01:58:00;99460.84;;;6.88;100.00
70053;BME280;57398;52.032;4.376;2023-12-20T02:00:49;99455.78;;;6.93;100.00
70053;BME280;57398;52.032;4.376;2023-12-20T02:03:37;99455.22;;;6.91;100.00
70053;BME280;57398;52.032;4.376;2023-12-20T02:06:29;99443.34;;;6.90;100.00
70053;BME280;57398;52.032;4.376;2023-12-20T02:09:18;99448.16;;;6.87;100.00
70053;BME280;57398;52.032;4.376;2023-12-20T02:12:06;99462.66;;;6.76;100.00
70053;BME280;57398;52.032;4.376;2023-12-20T02:14:54;99451.66;;;6.81;100.00
70053;BME280;57398;52.032;4.376;2023-12-20T02:17:42;99458.34;;;6.93;100.00
70053;BME280;57398;52.032;4.376;2023-12-20T02:20:32;99466.59;;;6.79;100.00
70053;BME280;57398;52.032;4.376;2023-12-20T02:23:21;99462.91;;;6.63;100.00
70053;BME280;57398;52.032;4.376;2023-12-20T02:26:10;99448.28;;;6.80;100.00
70053;BME280;57398;52.032;4.376;2023-12-20T02:29:01;99454.81;;;6.83;100.00
70053;BME280;57398;52.032;4.376;2023-12-20T02:31:50;99467.03;;;6.76;100.00
70053;BME280;57398;52.032;4.376;2023-12-20T02:34:38;99456.25;;;6.90;100.00
70053;BME280;57398;52.032;4.376;2023-12-20T02:37:26;99448.84;;;6.82;100.00
70053;BME280;57398;52.032;4.376;2023-12-20T02:40:16;99444.69;;;6.81;100.00
70053;BME280;57398;52.032;4.376;2023-12-20T02:43:04;99446.50;;;6.81;100.00
70053;BME280;57398;52.032;4.376;2023-12-20T02:45:52;99444.91;;;6.91;100.00
70053;BME280;57398;52.032;4.376;2023-12-20T02:48:41;99444.47;;;6.95;100.00
70053;BME280;57398;52.032;4.376;2023-12-20T02:51:29;99429.41;;;7.03;100.00
70053;BME280;57398;52.032;4.376;2023-12-20T02:54:17;99444.47;;;6.95;100.00
70053;BME280;57398;52.032;4.376;2023-12-20T02:57:07;99428.38;;;7.04;100.00
70053;BME280;57398;52.032;4.376;2023-12-20T02:59:55;99439.50;;;6.93;100.00
70053;BME280;57398;52.032;4.376;2023-12-20T03:02:43;99445.25;;;6.83;100.00
70053;BME280;57398;52.032;4.376;2023-12-20T03:05:32;99443.56;;;6.89;100.00
70053;BME280;57398;52.032;4.376;2023-12-20T03:08:21;99457.13;;;6.84;100.00
70053;BME280;57398;52.032;4.376;2023-12-20T03:11:09;99451.84;;;6.91;100.00
70053;BME280;57398;52.032;4.376;2023-12-20T03:13:59;99447.16;;;6.88;100.00
70053;BME280;57398;52.032;4.376;2023-12-20T03:16:49;99463.31;;;6.95;100.00
70053;BME280;57398;52.032;4.376;2023-12-20T03:19:37;99478.13;;;6.88;100.00
70053;BME280;57398;52.032;4.376;2023-12-20T03:22:25;99484.06;;;6.88;100.00
70053;BME280;57398;52.032;4.376;2023-12-20T03:25:13;99473.72;;;7.00;100.00
70053;BME280;57398;52.032;4.376;2023-12-20T03:28:02;99484.41;;;6.80;100.00
70053;BME280;57398;52.032;4.376;2023-12-20T03:30:52;99482.75;;;6.74;100.00
70053;BME280;57398;52.032;4.376;2023-12-20T03:33:40;99473.31;;;6.68;100.00
70053;BME280;57398;52.032;4.376;2023-12-20T03:36:28;99457.25;;;6.78;100.00
70053;BME280;57398;52.032;4.376;2023-12-20T03:39:16;99452.56;;;6.75;100.00
70053;BME280;57398;52.032;4.376;2023-12-20T03:42:04;99445.97;;;6.55;100.00
70053;BME280;57398;52.032;4.376;2023-12-20T03:44:52;99419.59;;;6.65;100.00
70053;BME280;57398;52.032;4.376;2023-12-20T03:47:42;99415.78;;;6.67;100.00
70053;BME280;57398;52.032;4.376;2023-12-20T03:50:30;99402.09;;;6.67;100.00
70053;BME280;57398;52.032;4.376;2023-12-20T03:53:19;99385.97;;;6.60;100.00
70053;BME280;57398;52.032;4.376;2023-12-20T03:56:07;99370.56;;;6.65;100.00
70053;BME280;57398;52.032;4.376;2023-12-20T03:58:55;99349.81;;;6.71;100.00
70053;BME280;57398;52.032;4.376;2023-12-20T04:01:43;99317.63;;;6.62;100.00
70053;BME280;57398;52.032;4.376;2023-12-20T04:04:33;99310.22;;;6.66;100.00
70053;BME280;57398;52.032;4.376;2023-12-20T04:07:21;99302.56;;;6.71;100.00
70053;BME280;57398;52.032;4.376;2023-12-20T04:10:09;99291.44;;;6.70;100.00
70053;BME280;57398;52.032;4.376;2023-12-20T04:12:58;99275.19;;;6.70;100.00
70053;BME280;57398;52.032;4.376;2023-12-20T04:15:46;99278.94;;;6.62;100.00
70053;BME280;57398;52.032;4.376;2023-12-20T04:18:34;99262.00;;;6.55;100.00
70053;BME280;57398;52.032;4.376;2023-12-20T04:21:24;99261.00;;;6.56;100.00
70053;BME280;57398;52.032;4.376;2023-12-20T04:24:12;99270.78;;;6.54;100.00
70053;BME280;57398;52.032;4.376;2023-12-20T04:27:01;99264.16;;;6.58;100.00
70053;BME280;57398;52.032;4.376;2023-12-20T04:29:49;99262.34;;;6.58;100.00
70053;BME280;57398;52.032;4.376;2023-12-20T04:32:37;99274.25;;;6.47;100.00
70053;BME280;57398;52.032;4.376;2023-12-20T04:35:25;99276.41;;;6.39;100.00
70053;BME280;57398;52.032;4.376;2023-12-20T04:38:15;99261.16;;;6.49;100.00
70053;BME280;57398;52.032;4.376;2023-12-20T04:41:03;99267.22;;;6.43;100.00
70053;BME280;57398;52.032;4.376;2023-12-20T04:43:51;99257.19;;;6.58;100.00
70053;BME280;57398;52.032;4.376;2023-12-20T04:46:39;99271.25;;;6.50;100.00
70053;BME280;57398;52.032;4.376;2023-12-20T04:49:27;99239.91;;;6.59;100.00
70053;BME280;57398;52.032;4.376;2023-12-20T04:52:16;99239.34;;;6.57;100.00
70053;BME280;57398;52.032;4.376;2023-12-20T04:55:06;99246.16;;;6.63;100.00
70053;BME280;57398;52.032;4.376;2023-12-20T04:57:54;99228.34;;;6.61;100.00
70053;BME280;57398;52.032;4.376;2023-12-20T05:00:43;99228.72;;;6.53;100.00
70053;BME280;57398;52.032;4.376;2023-12-20T05:03:31;99234.56;;;6.48;100.00
70053;BME280;57398;52.032;4.376;2023-12-20T05:06:19;99242.63;;;6.52;100.00
70053;BME280;57398;52.032;4.376;2023-12-20T05:09:08;99241.84;;;6.52;100.00
70053;BME280;57398;52.032;4.376;2023-12-20T05:11:57;99245.66;;;6.49;100.00
70053;BME280;57398;52.032;4.376;2023-12-20T05:14:46;99233.41;;;6.56;100.00
70053;BME280;57398;52.032;4.376;2023-12-20T05:17:34;99248.88;;;6.56;100.00
70053;BME280;57398;52.032;4.376;2023-12-20T05:20:23;99249.75;;;6.62;100.00
70053;BME280;57398;52.032;4.376;2023-12-20T05:23:11;99242.81;;;6.62;100.00
70053;BME280;57398;52.032;4.376;2023-12-20T05:26:00;99239.13;;;6.58;100.00
70053;BME280;57398;52.032;4.376;2023-12-20T05:28:49;99241.94;;;6.57;100.00
70053;BME280;57398;52.032;4.376;2023-12-20T05:31:37;99226.22;;;6.58;100.00
70053;BME280;57398;52.032;4.376;2023-12-20T05:34:25;99222.63;;;6.59;100.00
70053;BME280;57398;52.032;4.376;2023-12-20T05:37:14;99214.50;;;6.67;100.00
70053;BME280;57398;52.032;4.376;2023-12-20T05:40:03;99208.66;;;6.72;100.00
70053;BME280;57398;52.032;4.376;2023-12-20T05:42:51;99208.03;;;6.65;100.00
70053;BME280;57398;52.032;4.376;2023-12-20T05:45:40;99182.78;;;6.67;100.00
70053;BME280;57398;52.032;4.376;2023-12-20T05:48:29;99172.19;;;6.68;100.00
70053;BME280;57398;52.032;4.376;2023-12-20T05:51:17;99164.88;;;6.77;100.00
70053;BME280;57398;52.032;4.376;2023-12-20T05:54:05;99152.66;;;6.72;100.00
70053;BME280;57398;52.032;4.376;2023-12-20T05:56:53;99125.38;;;6.77;100.00
70053;BME280;57398;52.032;4.376;2023-12-20T05:59:41;99109.91;;;6.77;100.00
70053;BME280;57398;52.032;4.376;2023-12-20T06:02:31;99051.22;;;6.89;100.00
70053;BME280;57398;52.032;4.376;2023-12-20T06:05:19;99026.66;;;6.86;100.00
70053;BME280;57398;52.032;4.376;2023-12-20T06:08:07;99009.75;;;6.96;100.00
70053;BME280;57398;52.032;4.376;2023-12-20T06:10:55;98997.72;;;7.01;100.00
70053;BME280;57398;52.032;4.376;2023-12-20T06:13:43;98987.19;;;7.08;100.00
70053;BME280;57398;52.032;4.376;2023-12-20T06:16:32;98968.59;;;7.06;100.00
70053;BME280;57398;52.032;4.376;2023-12-20T06:19:21;98941.91;;;7.00;100.00
70053;BME280;57398;52.032;4.376;2023-12-20T06:22:09;98928.78;;;7.02;100.00
70053;BME280;57398;52.032;4.376;2023-12-20T06:24:57;98920.13;;;6.91;100.00
70053;BME280;57398;52.032;4.376;2023-12-20T06:27:46;98906.28;;;6.97;100.00
70053;BME280;57398;52.032;4.376;2023-12-20T06:30:34;98893.22;;;7.09;100.00
70053;BME280;57398;52.032;4.376;2023-12-20T06:33:23;98903.56;;;7.09;100.00
70053;BME280;57398;52.032;4.376;2023-12-20T06:36:12;98881.03;;;7.04;100.00
70053;BME280;57398;52.032;4.376;2023-12-20T06:39:00;98887.97;;;6.99;100.00
70053;BME280;57398;52.032;4.376;2023-12-20T06:41:49;98885.31;;;6.93;100.00
70053;BME280;57398;52.032;4.376;2023-12-20T06:44:37;98870.00;;;6.87;100.00
70053;BME280;57398;52.032;4.376;2023-12-20T06:47:25;98862.94;;;6.77;100.00
70053;BME280;57398;52.032;4.376;2023-12-20T06:50:14;98848.41;;;6.71;100.00
70053;BME280;57398;52.032;4.376;2023-12-20T06:53:03;98847.22;;;6.79;100.00
70053;BME280;57398;52.032;4.376;2023-12-20T06:55:53;98836.13;;;6.78;100.00
70053;BME280;57398;52.032;4.376;2023-12-20T06:58:43;98837.38;;;6.76;100.00
70053;BME280;57398;52.032;4.376;2023-12-20T07:01:31;98824.47;;;6.76;100.00
70053;BME280;57398;52.032;4.376;2023-12-20T07:04:19;98813.91;;;6.77;100.00
70053;BME280;57398;52.032;4.376;2023-12-20T07:07:09;98823.34;;;6.66;100.00
70053;BME280;57398;52.032;4.376;2023-12-20T07:09:58;98812.06;;;6.72;100.00
70053;BME280;57398;52.032;4.376;2023-12-20T07:12:47;98805.09;;;6.73;100.00
70053;BME280;57398;52.032;4.376;2023-12-20T07:15:36;98792.69;;;6.70;100.00
70053;BME280;57398;52.032;4.376;2023-12-20T07:18:24;98787.53;;;6.70;100.00
70053;BME280;57398;52.032;4.376;2023-12-20T07:21:13;98772.34;;;6.74;100.00
70053;BME280;57398;52.032;4.376;2023-12-20T07:24:01;98759.69;;;6.72;100.00
70053;BME280;57398;52.032;4.376;2023-12-20T07:26:50;98787.00;;;6.68;100.00
70053;BME280;57398;52.032;4.376;2023-12-20T07:29:38;98796.00;;;6.65;100.00
70053;BME280;57398;52.032;4.376;2023-12-20T07:32:26;98790.28;;;6.63;100.00
70053;BME280;57398;52.032;4.376;2023-12-20T07:35:15;98785.50;;;6.72;100.00
70053;BME280;57398;52.032;4.376;2023-12-20T07:38:03;98785.19;;;6.68;100.00
70053;BME280;57398;52.032;4.376;2023-12-20T07:40:52;98792.66;;;6.65;100.00
70053;BME280;57398;52.032;4.376;2023-12-20T07:43:41;98801.16;;;6.65;100.00
70053;BME280;57398;52.032;4.376;2023-12-20T07:46:29;98776.97;;;6.71;100.00
70053;BME280;57398;52.032;4.376;2023-12-20T07:49:18;98777.97;;;6.70;100.00
70053;BME280;57398;52.032;4.376;2023-12-20T07:52:07;98765.94;;;6.76;100.00
70053;BME280;57398;52.032;4.376;2023-12-20T07:54:56;98758.41;;;6.75;100.00
70053;BME280;57398;52.032;4.376;2023-12-20T07:57:44;98754.50;;;6.99;100.00
70053;BME280;57398;52.032;4.376;2023-12-20T08:00:34;98747.66;;;6.83;100.00
70053;BME280;57398;52.032;4.376;2023-12-20T08:03:22;98760.03;;;6.81;100.00
70053;BME280;57398;52.032;4.376;2023-12-20T08:06:10;98742.69;;;7.03;100.00
70053;BME280;57398;52.032;4.376;2023-12-20T08:08:58;98752.41;;;6.96;100.00
70053;BME280;57398;52.032;4.376;2023-12-20T08:11:52;98728.19;;;7.02;100.00
70053;BME280;57398;52.032;4.376;2023-12-20T08:14:40;98731.09;;;7.06;100.00
70053;BME280;57398;52.032;4.376;2023-12-20T08:17:30;98728.03;;;7.14;100.00
70053;BME280;57398;52.032;4.376;2023-12-20T08:20:18;98732.66;;;7.12;100.00
70053;BME280;57398;52.032;4.376;2023-12-20T08:23:15;98724.81;;;7.34;100.00
70053;BME280;57398;52.032;4.376;2023-12-20T08:26:04;98723.28;;;7.33;100.00
70053;BME280;57398;52.032;4.376;2023-12-20T08:28:53;98736.34;;;7.21;100.00
70053;BME280;57398;52.032;4.376;2023-12-20T08:31:43;98733.19;;;7.14;100.00
70053;BME280;57398;52.032;4.376;2023-12-20T08:34:34;98733.81;;;7.26;100.00
70053;BME280;57398;52.032;4.376;2023-12-20T08:37:22;98740.53;;;7.27;100.00
70053;BME280;57398;52.032;4.376;2023-12-20T08:40:11;98737.28;;;7.42;100.00
70053;BME280;57398;52.032;4.376;2023-12-20T08:42:59;98748.56;;;7.31;100.00
70053;BME280;57398;52.032;4.376;2023-12-20T08:45:47;98747.06;;;7.40;100.00
70053;BME280;57398;52.032;4.376;2023-12-20T08:48:35;98740.09;;;7.41;100.00
70053;BME280;57398;52.032;4.376;2023-12-20T08:51:25;98730.34;;;7.53;100.00
70053;BME280;57398;52.032;4.376;2023-12-20T08:54:14;98720.09;;;7.68;100.00
70053;BME280;57398;52.032;4.376;2023-12-20T08:57:04;98728.09;;;7.67;100.00
70053;BME280;57398;52.032;4.376;2023-12-20T08:59:53;98714.94;;;7.68;100.00
70053;BME280;57398;52.032;4.376;2023-12-20T09:02:41;98751.44;;;7.77;100.00
70053;BME280;57398;52.032;4.376;2023-12-20T09:05:29;98748.31;;;7.75;100.00
70053;BME280;57398;52.032;4.376;2023-12-20T09:08:19;98749.09;;;7.81;100.00
70053;BME280;57398;52.032;4.376;2023-12-20T09:11:07;98738.75;;;7.81;100.00
70053;BME280;57398;52.032;4.376;2023-12-20T09:13:55;98770.06;;;7.84;100.00
70053;BME280;57398;52.032;4.376;2023-12-20T09:16:44;98734.94;;;7.88;100.00
70053;BME280;57398;52.032;4.376;2023-12-20T09:19:32;98746.59;;;7.91;100.00
70053;BME280;57398;52.032;4.376;2023-12-20T09:22:20;98753.06;;;7.93;100.00
70053;BME280;57398;52.032;4.376;2023-12-20T09:25:10;98753.81;;;7.94;100.00
70053;BME280;57398;52.032;4.376;2023-12-20T09:27:59;98755.63;;;7.93;100.00
70053;BME280;57398;52.032;4.376;2023-12-20T09:30:47;98752.56;;;8.02;100.00
70053;BME280;57398;52.032;4.376;2023-12-20T09:33:35;98757.50;;;8.03;100.00
70053;BME280;57398;52.032;4.376;2023-12-20T09:36:24;98764.16;;;7.89;100.00
70053;BME280;57398;52.032;4.376;2023-12-20T09:39:13;98747.34;;;7.86;100.00
70053;BME280;57398;52.032;4.376;2023-12-20T09:42:03;98759.19;;;7.77;100.00
70053;BME280;57398;52.032;4.376;2023-12-20T09:44:52;98758.66;;;7.80;100.00
70053;BME280;57398;52.032;4.376;2023-12-20T09:47:41;98778.13;;;7.93;100.00
70053;BME280;57398;52.032;4.376;2023-12-20T09:50:30;98776.59;;;7.97;100.00
70053;BME280;57398;52.032;4.376;2023-12-20T09:53:19;98780.97;;;7.91;100.00
70053;BME280;57398;52.032;4.376;2023-12-20T09:56:10;98800.88;;;7.91;100.00
70053;BME280;57398;52.032;4.376;2023-12-20T09:59:00;98803.16;;;7.82;100.00
70053;BME280;57398;52.032;4.376;2023-12-20T10:01:50;98810.38;;;7.80;100.00
70053;BME280;57398;52.032;4.376;2023-12-20T10:04:46;98812.78;;;7.97;100.00
70053;BME280;57398;52.032;4.376;2023-12-20T10:07:35;98804.84;;;8.09;100.00
70053;BME280;57398;52.032;4.376;2023-12-20T10:10:24;98790.97;;;8.30;100.00
70053;BME280;57398;52.032;4.376;2023-12-20T10:13:28;98803.91;;;8.30;100.00
70053;BME280;57398;52.032;4.376;2023-12-20T10:16:17;98829.47;;;8.27;100.00
70053;BME280;57398;52.032;4.376;2023-12-20T10:19:06;98833.63;;;8.28;100.00
70053;BME280;57398;52.032;4.376;2023-12-20T10:21:54;98841.41;;;8.28;100.00
70053;BME280;57398;52.032;4.376;2023-12-20T10:24:42;98838.81;;;8.28;100.00
70053;BME280;57398;52.032;4.376;2023-12-20T10:27:31;98837.75;;;8.29;100.00
70053;BME280;57398;52.032;4.376;2023-12-20T10:30:19;98834.16;;;8.30;100.00
70053;BME280;57398;52.032;4.376;2023-12-20T10:33:09;98837.81;;;8.39;100.00
70053;BME280;57398;52.032;4.376;2023-12-20T10:35:58;98828.03;;;8.41;100.00
70053;BME280;57398;52.032;4.376;2023-12-20T10:38:46;98828.75;;;8.36;100.00
70053;BME280;57398;52.032;4.376;2023-12-20T10:41:38;98845.06;;;8.37;100.00
70053;BME280;57398;52.032;4.376;2023-12-20T10:44:29;98823.06;;;8.39;100.00
70053;BME280;57398;52.032;4.376;2023-12-20T10:47:17;98797.25;;;8.45;100.00
70053;BME280;57398;52.032;4.376;2023-12-20T10:50:08;98796.25;;;8.51;100.00
70053;BME280;57398;52.032;4.376;2023-12-20T10:52:57;98796.53;;;8.59;100.00
70053;BME280;57398;52.032;4.376;2023-12-20T10:55:47;98798.34;;;8.64;100.00
70053;BME280;57398;52.032;4.376;2023-12-20T10:58:38;98804.06;;;8.71;100.00
70053;BME280;57398;52.032;4.376;2023-12-20T11:01:30;98797.59;;;8.74;100.00
70053;BME280;57398;52.032;4.376;2023-12-20T11:04:23;98809.00;;;8.83;100.00
70053;BME280;57398;52.032;4.376;2023-12-20T11:07:21;98822.22;;;8.87;100.00
70053;BME280;57398;52.032;4.376;2023-12-20T11:10:15;98817.53;;;8.84;100.00
70053;BME280;57398;52.032;4.376;2023-12-20T11:13:08;98813.41;;;8.77;100.00
70053;BME280;57398;52.032;4.376;2023-12-20T11:15:59;98830.72;;;8.72;100.00
70053;BME280;57398;52.032;4.376;2023-12-20T11:18:50;98833.81;;;8.64;100.00
70053;BME280;57398;52.032;4.376;2023-12-20T11:21:39;98831.72;;;8.66;100.00
70053;BME280;57398;52.032;4.376;2023-12-20T11:24:31;98834.81;;;8.63;100.00
70053;BME280;57398;52.032;4.376;2023-12-20T11:27:20;98808.69;;;8.59;100.00
70053;BME280;57398;52.032;4.376;2023-12-20T11:30:10;98826.81;;;8.59;100.00
70053;BME280;57398;52.032;4.376;2023-12-20T11:32:59;98819.31;;;8.63;100.00
70053;BME280;57398;52.032;4.376;2023-12-20T11:35:47;98831.22;;;8.64;100.00
70053;BME280;57398;52.032;4.376;2023-12-20T11:38:38;98822.13;;;8.61;100.00
70053;BME280;57398;52.032;4.376;2023-12-20T11:41:28;98813.63;;;8.71;100.00
70053;BME280;57398;52.032;4.376;2023-12-20T11:44:17;98821.38;;;8.66;100.00
70053;BME280;57398;52.032;4.376;2023-12-20T11:47:05;98829.66;;;8.68;100.00
70053;BME280;57398;52.032;4.376;2023-12-20T11:49:53;98813.88;;;8.64;100.00
70053;BME280;57398;52.032;4.376;2023-12-20T11:52:43;98807.41;;;8.72;100.00
70053;BME280;57398;52.032;4.376;2023-12-20T11:55:31;98813.41;;;8.77;100.00
70053;BME280;57398;52.032;4.376;2023-12-20T11:58:20;98798.63;;;8.78;100.00
70053;BME280;57398;52.032;4.376;2023-12-20T12:01:08;98809.47;;;8.75;100.00
70053;BME280;57398;52.032;4.376;2023-12-20T12:04:03;98816.25;;;8.81;100.00
70053;BME280;57398;52.032;4.376;2023-12-20T12:06:51;98824.53;;;8.78;100.00
70053;BME280;57398;52.032;4.376;2023-12-20T12:09:39;98833.81;;;8.74;100.00
70053;BME280;57398;52.032;4.376;2023-12-20T12:12:28;98832.00;;;8.79;100.00
70053;BME280;57398;52.032;4.376;2023-12-20T12:15:18;98839.53;;;8.76;100.00
70053;BME280;57398;52.032;4.376;2023-12-20T12:18:07;98856.06;;;8.75;100.00
70053;BME280;57398;52.032;4.376;2023-12-20T12:21:00;98850.13;;;8.79;100.00
70053;BME280;57398;52.032;4.376;2023-12-20T12:24:06;98843.13;;;8.75;100.00
70053;BME280;57398;52.032;4.376;2023-12-20T12:26:57;98854.81;;;8.77;100.00
70053;BME280;57398;52.032;4.376;2023-12-20T12:30:00;98861.53;;;8.78;100.00
70053;BME280;57398;52.032;4.376;2023-12-20T12:32:50;98869.31;;;8.78;100.00
70053;BME280;57398;52.032;4.376;2023-12-20T12:35:40;98860.00;;;8.83;100.00
70053;BME280;57398;52.032;4.376;2023-12-20T12:38:28;98861.28;;;8.80;100.00
70053;BME280;57398;52.032;4.376;2023-12-20T12:41:18;98852.47;;;8.76;100.00
70053;BME280;57398;52.032;4.376;2023-12-20T12:44:06;98843.91;;;8.70;100.00
70053;BME280;57398;52.032;4.376;2023-12-20T12:47:03;98833.06;;;8.78;100.00
70053;BME280;57398;52.032;4.376;2023-12-20T12:49:54;98822.69;;;8.73;100.00
70053;BME280;57398;52.032;4.376;2023-12-20T12:52:42;98799.13;;;8.75;100.00
70053;BME280;57398;52.032;4.376;2023-12-20T12:55:30;98774.81;;;8.76;100.00
70053;BME280;57398;52.032;4.376;2023-12-20T12:58:18;98756.69;;;8.76;100.00
70053;BME280;57398;52.032;4.376;2023-12-20T13:01:07;98736.22;;;8.74;100.00
70053;BME280;57398;52.032;4.376;2023-12-20T13:03:55;98715.78;;;8.63;100.00
70053;BME280;57398;52.032;4.376;2023-12-20T13:06:44;98687.06;;;8.64;100.00
70053;BME280;57398;52.032;4.376;2023-12-20T13:09:33;98664.00;;;8.68;100.00
70053;BME280;57398;52.032;4.376;2023-12-20T13:12:22;98658.59;;;8.64;100.00
70053;BME280;57398;52.032;4.376;2023-12-20T13:15:10;98650.56;;;8.60;100.00
70053;BME280;57398;52.032;4.376;2023-12-20T13:17:58;98639.72;;;8.64;100.00
70053;BME280;57398;52.032;4.376;2023-12-20T13:20:47;98630.63;;;8.61;100.00
70053;BME280;57398;52.032;4.376;2023-12-20T13:23:36;98632.19;;;8.57;100.00
70053;BME280;57398;52.032;4.376;2023-12-20T13:26:27;98613.28;;;8.56;100.00
70053;BME280;57398;52.032;4.376;2023-12-20T13:29:15;98608.13;;;8.62;100.00
70053;BME280;57398;52.032;4.376;2023-12-20T13:32:04;98603.72;;;8.52;100.00
70053;BME280;57398;52.032;4.376;2023-12-20T13:34:52;98602.69;;;8.58;100.00
70053;BME280;57398;52.032;4.376;2023-12-20T13:37:40;98593.13;;;8.53;100.00
70053;BME280;57398;52.032;4.376;2023-12-20T13:40:30;98591.06;;;8.50;100.00
70053;BME280;57398;52.032;4.376;2023-12-20T13:43:19;98564.41;;;8.50;100.00
70053;BME280;57398;52.032;4.376;2023-12-20T13:46:08;98559.22;;;8.55;100.00
70053;BME280;57398;52.032;4.376;2023-12-20T13:48:57;98560.25;;;8.49;100.00
70053;BME280;57398;52.032;4.376;2023-12-20T13:51:45;98548.59;;;8.51;100.00
70053;BME280;57398;52.032;4.376;2023-12-20T13:54:34;98545.25;;;8.46;100.00
70053;BME280;57398;52.032;4.376;2023-12-20T13:57:23;98519.63;;;8.44;100.00
70053;BME280;57398;52.032;4.376;2023-12-20T14:00:31;98514.19;;;8.41;100.00
70053;BME280;57398;52.032;4.376;2023-12-20T14:03:19;98484.72;;;8.36;100.00
70053;BME280;57398;52.032;4.376;2023-12-20T14:06:07;98487.56;;;8.40;100.00
70053;BME280;57398;52.032;4.376;2023-12-20T14:08:55;98484.97;;;8.35;100.00
70053;BME280;57398;52.032;4.376;2023-12-20T14:11:44;98470.47;;;8.39;100.00
70053;BME280;57398;52.032;4.376;2023-12-20T14:14:34;98457.03;;;8.37;100.00
70053;BME280;57398;52.032;4.376;2023-12-20T14:17:22;98460.38;;;8.37;100.00
70053;BME280;57398;52.032;4.376;2023-12-20T14:20:10;98463.22;;;8.36;100.00
70053;BME280;57398;52.032;4.376;2023-12-20T14:23:00;98447.22;;;8.34;100.00
70053;BME280;57398;52.032;4.376;2023-12-20T14:25:48;98463.50;;;8.34;100.00
70053;BME280;57398;52.032;4.376;2023-12-20T14:28:39;98476.44;;;8.34;100.00
70053;BME280;57398;52.032;4.376;2023-12-20T14:31:29;98481.59;;;8.34;100.00
70053;BME280;57398;52.032;4.376;2023-12-20T14:34:17;98488.56;;;8.29;100.00
70053;BME280;57398;52.032;4.376;2023-12-20T14:37:05;98480.81;;;8.29;100.00
70053;BME280;57398;52.032;4.376;2023-12-20T14:39:53;98469.97;;;8.32;100.00
70053;BME280;57398;52.032;4.376;2023-12-20T14:42:42;98456.53;;;8.30;100.00
70053;BME280;57398;52.032;4.376;2023-12-20T14:45:30;98456.25;;;8.31;100.00
70053;BME280;57398;52.032;4.376;2023-12-20T14:48:20;98453.41;;;8.28;100.00
70053;BME280;57398;52.032;4.376;2023-12-20T14:51:08;98457.53;;;8.29;100.00
70053;BME280;57398;52.032;4.376;2023-12-20T14:53:57;98429.09;;;8.29;100.00
70053;BME280;57398;52.032;4.376;2023-12-20T14:56:45;98448.25;;;8.28;100.00